sensor_id;sensor_type;location;lat;lon;timestamp;temperature;humidity
64062;DHT22;50308;47.438;-1.528;2023-09-19T00:00:38;19.60;80.00
64062;DHT22;50308;47.438;-1.528;2023-09-19T00:03:06;19.60;80.10
64062;DHT22;50308;47.438;-1.528;2023-09-19T00:05:34;19.60;80.30
64062;DHT22;50308;47.438;-1.528;2023-09-19T00:08:01;19.50;80.10
64062;DHT22;50308;47.438;-1.528;2023-09-19T00:10:31;19.50;80.00
64062;DHT22;50308;47.438;-1.528;2023-09-19T00:13:00;19.50;80.10
64062;DHT22;50308;47.438;-1.528;2023-09-19T00:15:31;19.50;80.00
64062;DHT22;50308;47.438;-1.528;2023-09-19T00:18:01;19.50;80.10
64062;DHT22;50308;47.438;-1.528;2023-09-19T00:20:26;19.40;79.90
64062;DHT22;50308;47.438;-1.528;2023-09-19T00:22:55;19.40;80.00
64062;DHT22;50308;47.438;-1.528;2023-09-19T00:25:20;19.40;80.00
64062;DHT22;50308;47.438;-1.528;2023-09-19T00:27:47;19.30;79.80
64062;DHT22;50308;47.438;-1.528;2023-09-19T00:30:17;19.30;80.00
64062;DHT22;50308;47.438;-1.528;2023-09-19T00:32:45;19.30;79.90
64062;DHT22;50308;47.438;-1.528;2023-09-19T00:35:13;19.30;79.80
64062;DHT22;50308;47.438;-1.528;2023-09-19T00:37:42;19.20;79.70
64062;DHT22;50308;47.438;-1.528;2023-09-19T00:40:09;19.20;79.70
64062;DHT22;50308;47.438;-1.528;2023-09-19T00:43:01;19.10;79.50
64062;DHT22;50308;47.438;-1.528;2023-09-19T00:45:27;19.10;79.60
64062;DHT22;50308;47.438;-1.528;2023-09-19T00:47:53;19.10;79.80
64062;DHT22;50308;47.438;-1.528;2023-09-19T00:50:22;19.10;79.90
64062;DHT22;50308;47.438;-1.528;2023-09-19T00:52:48;19.10;79.90
64062;DHT22;50308;47.438;-1.528;2023-09-19T00:55:16;19.10;80.00
64062;DHT22;50308;47.438;-1.528;2023-09-19T00:57:44;19.10;79.80
64062;DHT22;50308;47.438;-1.528;2023-09-19T01:00:10;19.10;79.80
64062;DHT22;50308;47.438;-1.528;2023-09-19T01:02:44;19.10;79.90
64062;DHT22;50308;47.438;-1.528;2023-09-19T01:05:10;19.10;79.90
64062;DHT22;50308;47.438;-1.528;2023-09-19T01:07:36;19.00;79.60
64062;DHT22;50308;47.438;-1.528;2023-09-19T01:10:06;19.00;79.70
64062;DHT22;50308;47.438;-1.528;2023-09-19T01:18:07;18.90;79.80
64062;DHT22;50308;47.438;-1.528;2023-09-19T01:31:20;18.90;79.90
64062;DHT22;50308;47.438;-1.528;2023-09-19T01:33:56;18.90;80.00
64062;DHT22;50308;47.438;-1.528;2023-09-19T01:36:36;18.90;79.80
64062;DHT22;50308;47.438;-1.528;2023-09-19T01:39:11;18.90;79.60
64062;DHT22;50308;47.438;-1.528;2023-09-19T01:47:35;18.70;79.50
64062;DHT22;50308;47.438;-1.528;2023-09-19T01:52:49;18.70;79.60
64062;DHT22;50308;47.438;-1.528;2023-09-19T01:55:20;18.60;79.60
64062;DHT22;50308;47.438;-1.528;2023-09-19T01:58:06;18.60;79.70
64062;DHT22;50308;47.438;-1.528;2023-09-19T02:00:35;18.60;79.40
64062;DHT22;50308;47.438;-1.528;2023-09-19T02:03:03;18.60;79.70
64062;DHT22;50308;47.438;-1.528;2023-09-19T02:05:29;18.60;79.70
64062;DHT22;50308;47.438;-1.528;2023-09-19T02:07:55;18.60;79.60
64062;DHT22;50308;47.438;-1.528;2023-09-19T02:10:22;18.60;79.90
64062;DHT22;50308;47.438;-1.528;2023-09-19T02:12:49;18.60;79.70
64062;DHT22;50308;47.438;-1.528;2023-09-19T02:15:15;18.60;79.50
64062;DHT22;50308;47.438;-1.528;2023-09-19T02:17:42;18.60;79.70
64062;DHT22;50308;47.438;-1.528;2023-09-19T02:20:10;18.50;79.60
64062;DHT22;50308;47.438;-1.528;2023-09-19T02:22:36;18.50;79.40
64062;DHT22;50308;47.438;-1.528;2023-09-19T02:25:02;18.50;79.60
64062;DHT22;50308;47.438;-1.528;2023-09-19T02:27:30;18.50;79.60
64062;DHT22;50308;47.438;-1.528;2023-09-19T02:29:56;18.50;79.50
64062;DHT22;50308;47.438;-1.528;2023-09-19T02:32:23;18.50;79.40
64062;DHT22;50308;47.438;-1.528;2023-09-19T02:34:48;18.40;79.30
64062;DHT22;50308;47.438;-1.528;2023-09-19T02:37:17;18.40;79.50
64062;DHT22;50308;47.438;-1.528;2023-09-19T02:39:44;18.40;79.40
64062;DHT22;50308;47.438;-1.528;2023-09-19T02:42:10;18.30;79.30
64062;DHT22;50308;47.438;-1.528;2023-09-19T02:44:35;18.30;79.40
64062;DHT22;50308;47.438;-1.528;2023-09-19T02:47:01;18.30;79.40
64062;DHT22;50308;47.438;-1.528;2023-09-19T02:49:27;18.30;79.60
64062;DHT22;50308;47.438;-1.528;2023-09-19T02:51:52;18.30;79.40
64062;DHT22;50308;47.438;-1.528;2023-09-19T02:54:18;18.30;79.40
64062;DHT22;50308;47.438;-1.528;2023-09-19T02:56:44;18.30;79.30
64062;DHT22;50308;47.438;-1.528;2023-09-19T02:59:10;18.30;79.50
64062;DHT22;50308;47.438;-1.528;2023-09-19T03:01:36;18.30;79.60
64062;DHT22;50308;47.438;-1.528;2023-09-19T03:04:04;18.20;79.40
64062;DHT22;50308;47.438;-1.528;2023-09-19T03:06:33;18.20;79.20
64062;DHT22;50308;47.438;-1.528;2023-09-19T03:08:58;18.20;79.40
64062;DHT22;50308;47.438;-1.528;2023-09-19T03:11:25;18.20;79.10
64062;DHT22;50308;47.438;-1.528;2023-09-19T03:13:54;18.10;79.20
64062;DHT22;50308;47.438;-1.528;2023-09-19T03:16:20;18.10;79.00
64062;DHT22;50308;47.438;-1.528;2023-09-19T03:18:50;18.10;79.10
64062;DHT22;50308;47.438;-1.528;2023-09-19T03:21:16;18.10;79.40
64062;DHT22;50308;47.438;-1.528;2023-09-19T03:23:43;18.10;79.20
64062;DHT22;50308;47.438;-1.528;2023-09-19T03:26:13;18.10;79.40
64062;DHT22;50308;47.438;-1.528;2023-09-19T03:28:42;18.00;79.40
64062;DHT22;50308;47.438;-1.528;2023-09-19T03:31:09;18.00;79.10
64062;DHT22;50308;47.438;-1.528;2023-09-19T03:33:35;18.00;79.20
64062;DHT22;50308;47.438;-1.528;2023-09-19T03:36:02;18.00;79.40
64062;DHT22;50308;47.438;-1.528;2023-09-19T03:38:31;18.00;79.30
64062;DHT22;50308;47.438;-1.528;2023-09-19T03:40:57;18.00;79.40
64062;DHT22;50308;47.438;-1.528;2023-09-19T03:43:23;18.00;79.30
64062;DHT22;50308;47.438;-1.528;2023-09-19T03:45:49;18.00;79.20
64062;DHT22;50308;47.438;-1.528;2023-09-19T03:48:16;18.00;79.20
64062;DHT22;50308;47.438;-1.528;2023-09-19T03:50:42;18.00;79.50
64062;DHT22;50308;47.438;-1.528;2023-09-19T03:53:09;17.90;79.40
64062;DHT22;50308;47.438;-1.528;2023-09-19T03:55:35;18.00;79.60
64062;DHT22;50308;47.438;-1.528;2023-09-19T03:58:01;17.90;79.70
64062;DHT22;50308;47.438;-1.528;2023-09-19T04:00:27;17.90;79.60
64062;DHT22;50308;47.438;-1.528;2023-09-19T04:02:54;17.90;79.60
64062;DHT22;50308;47.438;-1.528;2023-09-19T04:05:22;18.00;79.60
64062;DHT22;50308;47.438;-1.528;2023-09-19T04:07:48;18.00;80.00
64062;DHT22;50308;47.438;-1.528;2023-09-19T04:10:13;18.00;79.70
64062;DHT22;50308;47.438;-1.528;2023-09-19T04:12:40;18.00;79.80
64062;DHT22;50308;47.438;-1.528;2023-09-19T04:15:06;18.00;79.60
64062;DHT22;50308;47.438;-1.528;2023-09-19T04:17:32;18.00;79.70
64062;DHT22;50308;47.438;-1.528;2023-09-19T04:19:59;18.00;79.70
64062;DHT22;50308;47.438;-1.528;2023-09-19T04:22:25;18.00;79.70
64062;DHT22;50308;47.438;-1.528;2023-09-19T04:24:50;17.90;79.40
64062;DHT22;50308;47.438;-1.528;2023-09-19T04:27:16;17.90;79.40
64062;DHT22;50308;47.438;-1.528;2023-09-19T04:29:42;17.90;79.40
64062;DHT22;50308;47.438;-1.528;2023-09-19T04:32:08;17.90;79.30
64062;DHT22;50308;47.438;-1.528;2023-09-19T04:34:35;17.80;79.40
64062;DHT22;50308;47.438;-1.528;2023-09-19T04:37:01;17.80;79.50
64062;DHT22;50308;47.438;-1.528;2023-09-19T04:39:27;17.80;79.60
64062;DHT22;50308;47.438;-1.528;2023-09-19T04:41:53;17.80;79.20
64062;DHT22;50308;47.438;-1.528;2023-09-19T04:44:20;17.80;79.50
64062;DHT22;50308;47.438;-1.528;2023-09-19T04:46:46;17.80;79.70
64062;DHT22;50308;47.438;-1.528;2023-09-19T04:49:12;17.80;79.80
64062;DHT22;50308;47.438;-1.528;2023-09-19T04:51:38;17.80;79.80
64062;DHT22;50308;47.438;-1.528;2023-09-19T04:54:05;17.80;79.80
64062;DHT22;50308;47.438;-1.528;2023-09-19T04:56:31;17.80;79.90
64062;DHT22;50308;47.438;-1.528;2023-09-19T04:59:00;17.80;79.80
64062;DHT22;50308;47.438;-1.528;2023-09-19T05:01:26;17.90;79.90
64062;DHT22;50308;47.438;-1.528;2023-09-19T05:03:52;17.80;79.80
64062;DHT22;50308;47.438;-1.528;2023-09-19T05:06:21;17.80;79.80
64062;DHT22;50308;47.438;-1.528;2023-09-19T05:08:50;17.80;79.90
64062;DHT22;50308;47.438;-1.528;2023-09-19T05:11:18;17.80;79.80
64062;DHT22;50308;47.438;-1.528;2023-09-19T05:13:44;17.80;79.90
64062;DHT22;50308;47.438;-1.528;2023-09-19T05:16:09;17.80;79.90
64062;DHT22;50308;47.438;-1.528;2023-09-19T05:18:38;17.80;79.90
64062;DHT22;50308;47.438;-1.528;2023-09-19T05:21:03;17.80;79.90
64062;DHT22;50308;47.438;-1.528;2023-09-19T05:23:29;17.70;79.90
64062;DHT22;50308;47.438;-1.528;2023-09-19T05:25:56;17.80;79.90
64062;DHT22;50308;47.438;-1.528;2023-09-19T05:28:24;17.70;79.80
64062;DHT22;50308;47.438;-1.528;2023-09-19T05:30:49;17.70;79.80
64062;DHT22;50308;47.438;-1.528;2023-09-19T05:33:15;17.80;80.30
64062;DHT22;50308;47.438;-1.528;2023-09-19T05:35:41;17.80;80.20
64062;DHT22;50308;47.438;-1.528;2023-09-19T05:38:07;17.80;80.20
64062;DHT22;50308;47.438;-1.528;2023-09-19T05:40:38;17.80;80.10
64062;DHT22;50308;47.438;-1.528;2023-09-19T05:43:06;17.80;80.20
64062;DHT22;50308;47.438;-1.528;2023-09-19T05:45:31;17.80;80.10
64062;DHT22;50308;47.438;-1.528;2023-09-19T05:48:10;17.80;80.50
64062;DHT22;50308;47.438;-1.528;2023-09-19T05:50:41;17.80;80.50
64062;DHT22;50308;47.438;-1.528;2023-09-19T05:53:07;17.80;80.70
64062;DHT22;50308;47.438;-1.528;2023-09-19T05:55:33;17.80;80.60
64062;DHT22;50308;47.438;-1.528;2023-09-19T05:57:59;17.80;81.60
64062;DHT22;50308;47.438;-1.528;2023-09-19T06:00:26;17.80;80.60
64062;DHT22;50308;47.438;-1.528;2023-09-19T06:02:57;17.80;80.60
64062;DHT22;50308;47.438;-1.528;2023-09-19T06:05:24;17.80;80.60
64062;DHT22;50308;47.438;-1.528;2023-09-19T06:07:52;17.80;80.60
64062;DHT22;50308;47.438;-1.528;2023-09-19T06:10:19;17.80;80.70
64062;DHT22;50308;47.438;-1.528;2023-09-19T06:12:46;17.90;80.50
64062;DHT22;50308;47.438;-1.528;2023-09-19T06:15:13;17.90;80.70
64062;DHT22;50308;47.438;-1.528;2023-09-19T06:17:54;17.90;80.80
64062;DHT22;50308;47.438;-1.528;2023-09-19T06:20:25;17.90;80.80
64062;DHT22;50308;47.438;-1.528;2023-09-19T06:22:51;18.00;81.00
64062;DHT22;50308;47.438;-1.528;2023-09-19T06:25:17;18.00;80.90
64062;DHT22;50308;47.438;-1.528;2023-09-19T06:27:47;17.80;81.10
64062;DHT22;50308;47.438;-1.528;2023-09-19T06:30:14;17.90;82.00
64062;DHT22;50308;47.438;-1.528;2023-09-19T06:32:41;17.90;81.80
64062;DHT22;50308;47.438;-1.528;2023-09-19T06:35:14;18.00;81.70
64062;DHT22;50308;47.438;-1.528;2023-09-19T06:37:42;18.00;81.70
64062;DHT22;50308;47.438;-1.528;2023-09-19T06:40:11;18.00;81.60
64062;DHT22;50308;47.438;-1.528;2023-09-19T06:42:44;18.10;81.80
64062;DHT22;50308;47.438;-1.528;2023-09-19T06:45:14;18.10;81.70
64062;DHT22;50308;47.438;-1.528;2023-09-19T06:47:48;18.10;81.70
64062;DHT22;50308;47.438;-1.528;2023-09-19T06:50:21;18.10;81.80
64062;DHT22;50308;47.438;-1.528;2023-09-19T06:52:51;18.20;82.00
64062;DHT22;50308;47.438;-1.528;2023-09-19T06:55:20;18.20;82.00
64062;DHT22;50308;47.438;-1.528;2023-09-19T06:57:48;18.20;82.10
64062;DHT22;50308;47.438;-1.528;2023-09-19T07:00:15;18.20;82.40
64062;DHT22;50308;47.438;-1.528;2023-09-19T07:02:42;18.30;82.50
64062;DHT22;50308;47.438;-1.528;2023-09-19T07:05:08;18.40;82.70
64062;DHT22;50308;47.438;-1.528;2023-09-19T07:07:33;18.40;82.80
64062;DHT22;50308;47.438;-1.528;2023-09-19T07:10:03;18.50;83.00
64062;DHT22;50308;47.438;-1.528;2023-09-19T07:12:31;18.50;83.00
64062;DHT22;50308;47.438;-1.528;2023-09-19T07:14:58;18.50;83.00
64062;DHT22;50308;47.438;-1.528;2023-09-19T07:17:23;18.60;83.20
64062;DHT22;50308;47.438;-1.528;2023-09-19T07:19:49;18.70;83.10
64062;DHT22;50308;47.438;-1.528;2023-09-19T07:22:16;18.70;83.20
64062;DHT22;50308;47.438;-1.528;2023-09-19T07:24:41;18.70;83.30
64062;DHT22;50308;47.438;-1.528;2023-09-19T07:27:08;18.80;83.60
64062;DHT22;50308;47.438;-1.528;2023-09-19T07:29:34;18.90;83.40
64062;DHT22;50308;47.438;-1.528;2023-09-19T07:32:00;18.90;83.50
64062;DHT22;50308;47.438;-1.528;2023-09-19T07:34:25;19.00;83.50
64062;DHT22;50308;47.438;-1.528;2023-09-19T07:36:51;19.00;83.60
64062;DHT22;50308;47.438;-1.528;2023-09-19T07:39:17;19.10;83.70
64062;DHT22;50308;47.438;-1.528;2023-09-19T07:41:43;19.10;83.60
64062;DHT22;50308;47.438;-1.528;2023-09-19T07:44:08;19.10;83.40
64062;DHT22;50308;47.438;-1.528;2023-09-19T07:46:36;19.10;83.50
64062;DHT22;50308;47.438;-1.528;2023-09-19T07:49:01;19.20;83.70
64062;DHT22;50308;47.438;-1.528;2023-09-19T07:51:27;19.20;83.70
64062;DHT22;50308;47.438;-1.528;2023-09-19T07:53:53;19.30;83.60
64062;DHT22;50308;47.438;-1.528;2023-09-19T07:56:20;19.30;83.70
64062;DHT22;50308;47.438;-1.528;2023-09-19T07:58:46;19.30;83.60
64062;DHT22;50308;47.438;-1.528;2023-09-19T08:01:12;19.30;83.60
64062;DHT22;50308;47.438;-1.528;2023-09-19T08:03:39;19.40;83.30
64062;DHT22;50308;47.438;-1.528;2023-09-19T08:06:07;19.40;83.50
64062;DHT22;50308;47.438;-1.528;2023-09-19T08:08:33;19.50;83.10
64062;DHT22;50308;47.438;-1.528;2023-09-19T08:11:06;19.50;83.70
64062;DHT22;50308;47.438;-1.528;2023-09-19T08:13:37;19.60;82.90
64062;DHT22;50308;47.438;-1.528;2023-09-19T08:16:04;19.60;83.60
64062;DHT22;50308;47.438;-1.528;2023-09-19T08:18:30;19.60;83.50
64062;DHT22;50308;47.438;-1.528;2023-09-19T08:20:56;19.70;82.80
64062;DHT22;50308;47.438;-1.528;2023-09-19T08:23:24;19.80;82.90
64062;DHT22;50308;47.438;-1.528;2023-09-19T08:25:49;19.80;82.70
64062;DHT22;50308;47.438;-1.528;2023-09-19T08:28:15;19.90;82.30
64062;DHT22;50308;47.438;-1.528;2023-09-19T08:30:45;19.90;82.20
64062;DHT22;50308;47.438;-1.528;2023-09-19T08:33:11;20.00;83.60
64062;DHT22;50308;47.438;-1.528;2023-09-19T08:35:37;20.00;82.30
64062;DHT22;50308;47.438;-1.528;2023-09-19T08:38:05;20.00;82.20
64062;DHT22;50308;47.438;-1.528;2023-09-19T08:40:32;20.00;82.00
64062;DHT22;50308;47.438;-1.528;2023-09-19T08:42:59;20.10;81.90
64062;DHT22;50308;47.438;-1.528;2023-09-19T08:45:26;20.10;82.00
64062;DHT22;50308;47.438;-1.528;2023-09-19T08:50:42;20.20;81.90
64062;DHT22;50308;47.438;-1.528;2023-09-19T08:53:11;20.20;82.00
64062;DHT22;50308;47.438;-1.528;2023-09-19T08:55:40;20.20;82.00
64062;DHT22;50308;47.438;-1.528;2023-09-19T08:58:10;20.20;81.90
64062;DHT22;50308;47.438;-1.528;2023-09-19T09:00:36;20.30;81.90
64062;DHT22;50308;47.438;-1.528;2023-09-19T09:03:03;20.30;81.80
64062;DHT22;50308;47.438;-1.528;2023-09-19T09:05:32;20.20;81.70
64062;DHT22;50308;47.438;-1.528;2023-09-19T09:08:00;20.30;81.80
64062;DHT22;50308;47.438;-1.528;2023-09-19T09:10:28;20.30;81.70
64062;DHT22;50308;47.438;-1.528;2023-09-19T09:12:54;20.30;81.30
64062;DHT22;50308;47.438;-1.528;2023-09-19T09:15:23;20.30;81.20
64062;DHT22;50308;47.438;-1.528;2023-09-19T09:17:50;20.40;81.30
64062;DHT22;50308;47.438;-1.528;2023-09-19T09:20:19;20.40;81.30
64062;DHT22;50308;47.438;-1.528;2023-09-19T09:22:52;20.40;81.30
64062;DHT22;50308;47.438;-1.528;2023-09-19T09:25:19;20.40;81.30
64062;DHT22;50308;47.438;-1.528;2023-09-19T09:27:58;20.50;81.70
64062;DHT22;50308;47.438;-1.528;2023-09-19T09:30:37;20.40;81.30
64062;DHT22;50308;47.438;-1.528;2023-09-19T09:33:11;20.50;81.40
64062;DHT22;50308;47.438;-1.528;2023-09-19T09:35:46;20.50;81.40
64062;DHT22;50308;47.438;-1.528;2023-09-19T09:38:12;20.50;81.30
64062;DHT22;50308;47.438;-1.528;2023-09-19T09:40:49;20.50;81.40
64062;DHT22;50308;47.438;-1.528;2023-09-19T09:43:48;20.50;81.40
64062;DHT22;50308;47.438;-1.528;2023-09-19T09:46:16;20.50;81.40
64062;DHT22;50308;47.438;-1.528;2023-09-19T09:51:59;20.50;81.40
64062;DHT22;50308;47.438;-1.528;2023-09-19T09:55:00;20.50;81.40
64062;DHT22;50308;47.438;-1.528;2023-09-19T09:57:27;20.60;81.40
64062;DHT22;50308;47.438;-1.528;2023-09-19T09:59:54;20.60;81.40
64062;DHT22;50308;47.438;-1.528;2023-09-19T10:02:40;20.60;81.20
64062;DHT22;50308;47.438;-1.528;2023-09-19T10:05:26;20.60;81.40
64062;DHT22;50308;47.438;-1.528;2023-09-19T10:07:55;20.60;81.30
64062;DHT22;50308;47.438;-1.528;2023-09-19T10:10:33;20.60;81.20
64062;DHT22;50308;47.438;-1.528;2023-09-19T10:13:13;20.60;81.10
64062;DHT22;50308;47.438;-1.528;2023-09-19T10:15:43;20.60;81.40
64062;DHT22;50308;47.438;-1.528;2023-09-19T10:18:19;20.70;81.00
64062;DHT22;50308;47.438;-1.528;2023-09-19T10:20:46;20.70;80.90
64062;DHT22;50308;47.438;-1.528;2023-09-19T10:23:13;20.70;80.50
64062;DHT22;50308;47.438;-1.528;2023-09-19T10:25:43;20.70;80.20
64062;DHT22;50308;47.438;-1.528;2023-09-19T10:28:11;20.70;80.10
64062;DHT22;50308;47.438;-1.528;2023-09-19T10:30:38;20.70;80.10
64062;DHT22;50308;47.438;-1.528;2023-09-19T10:33:09;20.70;80.20
64062;DHT22;50308;47.438;-1.528;2023-09-19T10:35:38;20.70;80.00
64062;DHT22;50308;47.438;-1.528;2023-09-19T10:38:06;20.70;79.90
64062;DHT22;50308;47.438;-1.528;2023-09-19T10:40:33;20.70;79.90
64062;DHT22;50308;47.438;-1.528;2023-09-19T10:43:05;20.70;79.90
64062;DHT22;50308;47.438;-1.528;2023-09-19T10:45:32;20.80;79.80
64062;DHT22;50308;47.438;-1.528;2023-09-19T10:47:59;20.80;79.80
64062;DHT22;50308;47.438;-1.528;2023-09-19T10:50:27;20.80;79.80
64062;DHT22;50308;47.438;-1.528;2023-09-19T10:53:00;20.80;79.60
64062;DHT22;50308;47.438;-1.528;2023-09-19T10:55:31;20.80;79.80
64062;DHT22;50308;47.438;-1.528;2023-09-19T10:57:58;20.80;79.30
64062;DHT22;50308;47.438;-1.528;2023-09-19T11:00:53;20.80;78.70
64062;DHT22;50308;47.438;-1.528;2023-09-19T11:03:21;20.90;77.90
64062;DHT22;50308;47.438;-1.528;2023-09-19T11:08:54;20.80;77.70
64062;DHT22;50308;47.438;-1.528;2023-09-19T11:30:31;20.90;77.40
64062;DHT22;50308;47.438;-1.528;2023-09-19T11:43:51;21.00;77.70
64062;DHT22;50308;47.438;-1.528;2023-09-19T11:46:17;21.00;77.60
64062;DHT22;50308;47.438;-1.528;2023-09-19T11:48:48;21.00;77.60
64062;DHT22;50308;47.438;-1.528;2023-09-19T11:51:22;21.00;77.50
64062;DHT22;50308;47.438;-1.528;2023-09-19T11:53:50;21.00;77.30
64062;DHT22;50308;47.438;-1.528;2023-09-19T11:56:17;21.10;77.20
64062;DHT22;50308;47.438;-1.528;2023-09-19T11:58:46;21.10;77.00
64062;DHT22;50308;47.438;-1.528;2023-09-19T12:01:31;21.10;77.30
64062;DHT22;50308;47.438;-1.528;2023-09-19T12:03:58;21.10;77.30
64062;DHT22;50308;47.438;-1.528;2023-09-19T12:06:29;21.10;77.30
64062;DHT22;50308;47.438;-1.528;2023-09-19T12:08:55;21.10;77.40
64062;DHT22;50308;47.438;-1.528;2023-09-19T12:11:29;21.10;77.60
64062;DHT22;50308;47.438;-1.528;2023-09-19T12:13:59;21.10;77.60
64062;DHT22;50308;47.438;-1.528;2023-09-19T12:16:26;21.10;77.40
64062;DHT22;50308;47.438;-1.528;2023-09-19T12:18:56;21.20;77.60
64062;DHT22;50308;47.438;-1.528;2023-09-19T12:21:30;21.20;77.80
64062;DHT22;50308;47.438;-1.528;2023-09-19T12:24:14;21.20;77.70
64062;DHT22;50308;47.438;-1.528;2023-09-19T12:26:45;21.20;77.70
64062;DHT22;50308;47.438;-1.528;2023-09-19T12:29:20;21.20;77.70
64062;DHT22;50308;47.438;-1.528;2023-09-19T12:31:51;21.20;77.70
64062;DHT22;50308;47.438;-1.528;2023-09-19T12:34:20;21.20;77.60
64062;DHT22;50308;47.438;-1.528;2023-09-19T12:36:46;21.30;77.50
64062;DHT22;50308;47.438;-1.528;2023-09-19T12:39:22;21.30;77.60
64062;DHT22;50308;47.438;-1.528;2023-09-19T12:41:49;21.30;77.70
64062;DHT22;50308;47.438;-1.528;2023-09-19T12:44:16;21.30;77.60
64062;DHT22;50308;47.438;-1.528;2023-09-19T12:46:44;21.30;77.70
64062;DHT22;50308;47.438;-1.528;2023-09-19T12:49:18;21.30;77.70
64062;DHT22;50308;47.438;-1.528;2023-09-19T12:51:45;21.30;77.80
64062;DHT22;50308;47.438;-1.528;2023-09-19T12:54:11;21.30;78.30
64062;DHT22;50308;47.438;-1.528;2023-09-19T12:56:44;21.30;77.60
64062;DHT22;50308;47.438;-1.528;2023-09-19T12:59:12;21.30;77.80
64062;DHT22;50308;47.438;-1.528;2023-09-19T13:01:40;21.30;78.10
64062;DHT22;50308;47.438;-1.528;2023-09-19T13:04:19;21.30;78.10
64062;DHT22;50308;47.438;-1.528;2023-09-19T13:06:49;21.30;78.20
64062;DHT22;50308;47.438;-1.528;2023-09-19T13:09:16;21.30;78.30
64062;DHT22;50308;47.438;-1.528;2023-09-19T13:11:42;21.30;78.30
64062;DHT22;50308;47.438;-1.528;2023-09-19T13:14:22;21.30;78.40
64062;DHT22;50308;47.438;-1.528;2023-09-19T13:17:03;21.30;79.00
64062;DHT22;50308;47.438;-1.528;2023-09-19T13:19:40;21.30;79.00
64062;DHT22;50308;47.438;-1.528;2023-09-19T13:22:44;21.30;79.00
64062;DHT22;50308;47.438;-1.528;2023-09-19T13:25:20;21.30;79.30
64062;DHT22;50308;47.438;-1.528;2023-09-19T13:27:50;21.30;79.10
64062;DHT22;50308;47.438;-1.528;2023-09-19T13:30:18;21.30;79.20
64062;DHT22;50308;47.438;-1.528;2023-09-19T13:32:43;21.40;79.00
64062;DHT22;50308;47.438;-1.528;2023-09-19T13:35:10;21.40;78.90
64062;DHT22;50308;47.438;-1.528;2023-09-19T13:37:38;21.40;78.80
64062;DHT22;50308;47.438;-1.528;2023-09-19T13:40:14;21.40;78.70
64062;DHT22;50308;47.438;-1.528;2023-09-19T13:42:41;21.40;78.70
64062;DHT22;50308;47.438;-1.528;2023-09-19T13:45:07;21.40;78.40
64062;DHT22;50308;47.438;-1.528;2023-09-19T13:47:33;21.40;78.40
64062;DHT22;50308;47.438;-1.528;2023-09-19T13:50:01;21.40;78.30
64062;DHT22;50308;47.438;-1.528;2023-09-19T13:52:28;21.40;78.20
64062;DHT22;50308;47.438;-1.528;2023-09-19T13:54:56;21.40;78.10
64062;DHT22;50308;47.438;-1.528;2023-09-19T13:57:25;21.40;78.00
64062;DHT22;50308;47.438;-1.528;2023-09-19T13:59:51;21.40;77.90
64062;DHT22;50308;47.438;-1.528;2023-09-19T14:02:18;21.50;77.70
64062;DHT22;50308;47.438;-1.528;2023-09-19T14:04:44;21.50;77.70
64062;DHT22;50308;47.438;-1.528;2023-09-19T14:07:10;21.50;77.40
64062;DHT22;50308;47.438;-1.528;2023-09-19T14:09:36;21.50;77.10
64062;DHT22;50308;47.438;-1.528;2023-09-19T14:12:02;21.50;77.40
64062;DHT22;50308;47.438;-1.528;2023-09-19T14:14:28;21.50;77.20
64062;DHT22;50308;47.438;-1.528;2023-09-19T14:16:54;21.50;76.90
64062;DHT22;50308;47.438;-1.528;2023-09-19T14:19:20;21.50;77.00
64062;DHT22;50308;47.438;-1.528;2023-09-19T14:21:46;21.50;76.70
64062;DHT22;50308;47.438;-1.528;2023-09-19T14:24:16;21.50;76.40
64062;DHT22;50308;47.438;-1.528;2023-09-19T14:26:43;21.50;76.30
64062;DHT22;50308;47.438;-1.528;2023-09-19T14:29:09;21.50;76.50
64062;DHT22;50308;47.438;-1.528;2023-09-19T14:31:39;21.50;76.30
64062;DHT22;50308;47.438;-1.528;2023-09-19T14:34:06;21.50;76.40
64062;DHT22;50308;47.438;-1.528;2023-09-19T14:36:32;21.50;76.10
64062;DHT22;50308;47.438;-1.528;2023-09-19T14:38:59;21.50;75.90
64062;DHT22;50308;47.438;-1.528;2023-09-19T14:41:24;21.50;76.20
64062;DHT22;50308;47.438;-1.528;2023-09-19T14:43:54;21.50;76.20
64062;DHT22;50308;47.438;-1.528;2023-09-19T14:46:21;21.50;76.10
64062;DHT22;50308;47.438;-1.528;2023-09-19T14:48:47;21.50;75.60
64062;DHT22;50308;47.438;-1.528;2023-09-19T14:51:13;21.50;75.90
64062;DHT22;50308;47.438;-1.528;2023-09-19T14:53:40;21.50;75.40
64062;DHT22;50308;47.438;-1.528;2023-09-19T14:56:08;21.50;75.10
64062;DHT22;50308;47.438;-1.528;2023-09-19T14:58:34;21.50;75.30
64062;DHT22;50308;47.438;-1.528;2023-09-19T15:01:08;21.50;75.30
64062;DHT22;50308;47.438;-1.528;2023-09-19T15:03:36;21.50;75.40
64062;DHT22;50308;47.438;-1.528;2023-09-19T15:06:06;21.50;75.40
64062;DHT22;50308;47.438;-1.528;2023-09-19T15:08:36;21.50;75.60
64062;DHT22;50308;47.438;-1.528;2023-09-19T15:11:07;21.50;75.80
64062;DHT22;50308;47.438;-1.528;2023-09-19T15:13:33;21.50;75.90
64062;DHT22;50308;47.438;-1.528;2023-09-19T15:16:04;21.50;76.00
64062;DHT22;50308;47.438;-1.528;2023-09-19T15:18:30;21.50;76.10
64062;DHT22;50308;47.438;-1.528;2023-09-19T15:21:00;21.50;75.90
64062;DHT22;50308;47.438;-1.528;2023-09-19T15:23:25;21.50;76.00
64062;DHT22;50308;47.438;-1.528;2023-09-19T15:25:51;21.50;76.00
64062;DHT22;50308;47.438;-1.528;2023-09-19T15:28:17;21.50;76.20
64062;DHT22;50308;47.438;-1.528;2023-09-19T15:30:43;21.50;76.30
64062;DHT22;50308;47.438;-1.528;2023-09-19T15:33:08;21.50;76.10
64062;DHT22;50308;47.438;-1.528;2023-09-19T15:35:34;21.50;76.10
64062;DHT22;50308;47.438;-1.528;2023-09-19T15:38:02;21.50;76.20
64062;DHT22;50308;47.438;-1.528;2023-09-19T15:40:28;21.50;76.40
64062;DHT22;50308;47.438;-1.528;2023-09-19T15:42:54;21.50;76.20
64062;DHT22;50308;47.438;-1.528;2023-09-19T15:45:22;21.50;76.40
64062;DHT22;50308;47.438;-1.528;2023-09-19T15:47:48;21.50;76.40
64062;DHT22;50308;47.438;-1.528;2023-09-19T15:50:14;21.50;76.50
64062;DHT22;50308;47.438;-1.528;2023-09-19T15:52:41;21.50;76.40
64062;DHT22;50308;47.438;-1.528;2023-09-19T15:55:07;21.50;76.60
64062;DHT22;50308;47.438;-1.528;2023-09-19T15:57:36;21.50;76.70
64062;DHT22;50308;47.438;-1.528;2023-09-19T16:00:02;21.50;76.60
64062;DHT22;50308;47.438;-1.528;2023-09-19T16:02:30;21.50;76.70
64062;DHT22;50308;47.438;-1.528;2023-09-19T16:04:55;21.50;76.80
64062;DHT22;50308;47.438;-1.528;2023-09-19T16:07:21;21.50;76.90
64062;DHT22;50308;47.438;-1.528;2023-09-19T16:09:47;21.50;77.00
64062;DHT22;50308;47.438;-1.528;2023-09-19T16:12:12;21.50;77.10
64062;DHT22;50308;47.438;-1.528;2023-09-19T16:14:40;21.50;77.30
64062;DHT22;50308;47.438;-1.528;2023-09-19T16:17:05;21.50;77.40
64062;DHT22;50308;47.438;-1.528;2023-09-19T16:19:33;21.50;77.40
64062;DHT22;50308;47.438;-1.528;2023-09-19T16:21:59;21.50;77.40
64062;DHT22;50308;47.438;-1.528;2023-09-19T16:24:25;21.50;77.40
64062;DHT22;50308;47.438;-1.528;2023-09-19T16:26:51;21.50;78.70